createdAt,value
2018-06-22T00:03:38.657Z,59.42
2018-06-22T00:08:17.426Z,58.90
2018-06-22T00:12:56.400Z,60.28
2018-06-22T00:17:35.157Z,58.89
2018-06-22T00:22:14.988Z,59.38
2018-06-22T00:26:53.638Z,59.28
2018-06-22T00:31:33.551Z,59.69
2018-06-22T00:36:12.177Z,60.33
2018-06-22T00:40:54.847Z,62.70
2018-06-22T00:45:33.463Z,65.93
2018-06-22T00:50:16.029Z,67.18
2018-06-22T00:54:54.728Z,66.94
2018-06-22T00:59:38.723Z,66.37
2018-06-22T01:04:17.439Z,67.02
2018-06-22T01:08:59.940Z,67.83
2018-06-22T01:13:39.046Z,67.95
2018-06-22T01:18:18.713Z,69.32
2018-06-22T01:22:57.349Z,69.41
2018-06-22T01:27:36.018Z,68.30
2018-06-22T01:32:18.235Z,68.58
2018-06-22T01:36:56.812Z,68.22
2018-06-22T01:41:36.612Z,66.58
2018-06-22T01:46:15.347Z,68.83
2018-06-22T01:50:56.875Z,69.65
2018-06-22T01:55:35.391Z,67.74
2018-06-22T02:00:17.504Z,65.74
2018-06-22T02:04:56.004Z,68.12
2018-06-22T02:09:35.804Z,66.00
2018-06-22T02:14:14.377Z,65.49
2018-06-22T02:18:58.728Z,66.72
2018-06-22T02:23:37.248Z,68.84
2018-06-22T02:28:16.049Z,67.79
2018-06-22T02:32:54.673Z,66.31
2018-06-22T02:37:33.376Z,66.61
2018-06-22T02:42:12.018Z,65.26
2018-06-22T02:46:50.478Z,64.27
2018-06-22T02:51:29.965Z,64.32
2018-06-22T02:56:08.452Z,63.97
2018-06-22T03:00:51.607Z,63.37
2018-06-22T03:05:30.114Z,63.95
2018-06-22T03:10:12.310Z,63.79
2018-06-22T03:14:50.666Z,65.06
2018-06-22T03:19:29.347Z,63.42
2018-06-22T03:24:07.786Z,63.77
2018-06-22T03:28:47.447Z,63.08
2018-06-22T03:33:26.042Z,62.62
2018-06-22T03:38:08.628Z,62.52
2018-06-22T03:42:47.221Z,63.27
2018-06-22T03:52:03.634Z,63.14
2018-06-22T03:56:42.273Z,62.68
2018-06-22T04:01:22.047Z,63.94
2018-06-22T04:06:00.718Z,64.26
2018-06-22T04:10:42.436Z,62.77
2018-06-22T04:15:21.121Z,63.54
2018-06-22T04:20:00.751Z,62.86
2018-06-22T04:24:39.362Z,65.18
2018-06-22T04:29:21.102Z,67.15
2018-06-22T04:33:59.732Z,65.58
2018-06-22T04:38:39.370Z,66.22
2018-06-22T04:43:17.820Z,64.40
2018-06-22T04:47:59.849Z,65.38
2018-06-22T04:52:38.394Z,64.86
2018-06-22T04:57:18.188Z,65.15
2018-06-22T05:01:56.805Z,63.94
2018-06-22T05:06:35.370Z,64.93
2018-06-22T05:11:17.041Z,63.27
2018-06-22T05:15:56.141Z,63.01
2018-06-22T05:20:38.291Z,66.31
2018-06-22T05:25:16.785Z,64.97
2018-06-22T05:29:59.747Z,65.50
2018-06-22T05:34:38.557Z,65.22
2018-06-22T05:39:17.299Z,65.77
2018-06-22T05:43:55.834Z,65.44
2018-06-22T05:48:37.433Z,65.41
2018-06-22T05:53:15.943Z,65.28
2018-06-22T05:57:55.744Z,66.27
2018-06-22T06:02:34.209Z,64.73
2018-06-22T06:07:13.817Z,65.54
2018-06-22T06:11:52.318Z,64.65
2018-06-22T06:16:30.905Z,64.61
2018-06-22T06:21:10.573Z,63.95
2018-06-22T06:25:49.133Z,66.05
2018-06-22T06:30:33.802Z,66.04
2018-06-22T06:35:12.362Z,66.03
2018-06-22T06:39:56.602Z,66.09
2018-06-22T06:44:35.142Z,65.80
2018-06-22T06:49:17.840Z,63.91
2018-06-22T06:53:56.441Z,65.56
2018-06-22T06:58:34.921Z,63.33
2018-06-22T07:03:13.576Z,62.31
2018-06-22T07:07:55.934Z,60.29
2018-06-22T07:12:34.379Z,58.98
2018-06-22T07:17:17.753Z,55.22
2018-06-22T07:21:56.312Z,54.29
2018-06-22T07:26:34.650Z,54.74
2018-06-22T07:31:16.646Z,56.78
2018-06-22T07:35:55.130Z,56.20
2018-06-22T07:40:36.889Z,57.30
2018-06-22T07:45:15.519Z,56.53
2018-06-22T07:49:54.884Z,56.18
2018-06-22T07:54:33.461Z,55.90
2018-06-22T07:59:15.438Z,54.70
2018-06-22T08:03:53.940Z,53.28
2018-06-22T08:08:36.048Z,54.22
2018-06-22T08:13:14.485Z,53.17
2018-06-22T08:17:53.154Z,51.83
2018-06-22T08:22:31.737Z,53.15
2018-06-22T08:27:11.238Z,51.46
2018-06-22T08:31:49.677Z,49.54
2018-06-22T08:36:28.223Z,50.18
2018-06-22T08:41:07.801Z,49.38
2018-06-22T08:45:46.352Z,49.17
2018-06-22T08:50:28.536Z,48.68
2018-06-22T08:55:07.114Z,47.15
2018-06-22T08:59:50.954Z,46.91
2018-06-22T09:04:29.568Z,46.17
2018-06-22T09:09:08.977Z,44.34
2018-06-22T09:13:47.590Z,45.91
2018-06-22T09:18:26.214Z,43.99
2018-06-22T09:23:04.849Z,44.54
2018-06-22T09:27:44.723Z,44.38
2018-06-22T09:32:23.301Z,44.00
2018-06-22T09:37:02.866Z,45.37
2018-06-22T09:41:41.513Z,45.86
2018-06-22T09:46:19.875Z,44.02
2018-06-22T09:51:01.933Z,43.40
2018-06-22T09:55:40.517Z,42.08
2018-06-22T10:00:23.621Z,42.53
2018-06-22T10:05:02.144Z,43.09
2018-06-22T10:09:44.463Z,44.13
2018-06-22T10:14:23.061Z,42.77
2018-06-22T10:19:01.833Z,45.24
2018-06-22T10:23:40.448Z,44.87
2018-06-22T10:28:20.228Z,41.07
2018-06-22T10:32:58.777Z,39.18
2018-06-22T10:37:40.629Z,45.37
2018-06-22T10:42:19.601Z,46.06
2018-06-22T10:46:58.469Z,47.33
2018-06-22T10:51:37.034Z,47.56
2018-06-22T10:56:15.387Z,49.06
2018-06-22T11:00:53.714Z,49.44
2018-06-22T11:05:32.180Z,49.74
2018-06-22T11:10:10.730Z,49.52
2018-06-22T11:14:49.289Z,50.22
2018-06-22T11:19:33.763Z,52.08
2018-06-22T11:24:12.353Z,52.51
2018-06-22T11:28:51.072Z,49.61
2018-06-22T11:33:29.874Z,49.95
2018-06-22T11:38:11.411Z,50.42
2018-06-22T11:42:49.942Z,51.67
2018-06-22T11:47:34.803Z,51.64
2018-06-22T11:52:13.362Z,50.68
2018-06-22T11:56:55.425Z,51.17
2018-06-22T12:01:34.062Z,51.21
2018-06-22T12:06:12.679Z,51.47
2018-06-22T12:10:51.255Z,50.93
2018-06-22T12:15:29.730Z,49.61
2018-06-22T12:20:09.522Z,49.72
2018-06-22T12:24:48.029Z,49.86
2018-06-22T12:29:33.133Z,49.25
2018-06-22T12:34:11.716Z,50.11
2018-06-22T12:38:53.564Z,49.30
2018-06-22T12:43:32.270Z,49.74
2018-06-22T12:48:12.996Z,50.56
2018-06-22T12:52:51.574Z,51.62
2018-06-22T12:57:30.187Z,51.63
2018-06-22T13:02:08.686Z,50.49
2018-06-22T13:06:50.737Z,50.40
2018-06-22T13:11:29.242Z,54.71
2018-06-22T13:16:07.765Z,55.00
2018-06-22T13:20:46.366Z,56.17
2018-06-22T13:25:25.001Z,55.78
2018-06-22T13:30:07.078Z,56.86
2018-06-22T13:34:45.563Z,55.33
2018-06-22T13:39:25.208Z,55.03
2018-06-22T13:44:03.742Z,53.94
2018-06-22T13:48:45.767Z,54.74
2018-06-22T13:53:24.400Z,55.25
2018-06-22T13:58:03.084Z,57.31
2018-06-22T14:02:41.833Z,56.43
2018-06-22T14:07:22.042Z,54.96
2018-06-22T14:12:00.766Z,53.12
2018-06-22T14:16:43.390Z,52.84
2018-06-22T14:21:23.007Z,53.26
2018-06-22T14:26:02.717Z,51.01
2018-06-22T14:30:41.457Z,50.43
2018-06-22T14:35:19.993Z,51.20
2018-06-22T14:40:00.044Z,50.24
2018-06-22T14:44:38.705Z,51.16
2018-06-22T14:49:17.614Z,51.48
2018-06-22T14:54:02.494Z,52.85
2018-06-22T14:58:47.368Z,54.03
2018-06-22T15:03:31.593Z,51.88
2018-06-22T15:08:14.667Z,51.94
2018-06-22T15:12:53.283Z,53.83
2018-06-22T15:17:41.691Z,54.25
2018-06-22T15:22:20.303Z,54.52
2018-06-22T15:26:59.455Z,52.99
2018-06-22T15:31:37.964Z,54.70
2018-06-22T15:36:23.075Z,53.66
2018-06-22T15:41:06.960Z,54.96
2018-06-22T15:45:53.876Z,53.60
2018-06-22T15:50:37.604Z,54.89
2018-06-22T15:55:22.294Z,53.82
2018-06-22T16:00:01.137Z,55.19
2018-06-22T16:04:39.739Z,55.09
2018-06-22T16:09:22.515Z,53.99
2018-06-22T16:14:06.484Z,54.43
2018-06-22T16:18:50.838Z,53.32
2018-06-22T16:23:34.655Z,53.43
2018-06-22T16:28:16.467Z,54.02
2018-06-22T16:32:54.988Z,53.76
2018-06-22T16:37:34.691Z,53.89
2018-06-22T16:42:13.149Z,54.37
2018-06-22T16:46:55.686Z,56.02
2018-06-22T16:51:34.839Z,56.93
2018-06-22T16:56:14.530Z,58.20
2018-06-22T17:00:53.590Z,57.97
2018-06-22T17:05:37.651Z,57.27
2018-06-22T17:10:21.592Z,58.76
2018-06-22T17:15:05.515Z,58.29
2018-06-22T17:19:45.249Z,58.29
2018-06-22T17:24:23.875Z,57.66
2018-06-22T17:29:05.962Z,58.91
2018-06-22T17:33:44.698Z,59.25
2018-06-22T17:38:26.641Z,61.99
2018-06-22T17:43:05.295Z,62.32
2018-06-22T17:47:48.519Z,64.19
2018-06-22T17:52:27.069Z,65.77
2018-06-22T17:57:10.248Z,67.03
2018-06-22T18:01:54.967Z,66.66
2018-06-22T18:06:38.074Z,66.17
2018-06-22T18:11:21.813Z,64.14
2018-06-22T18:16:01.437Z,63.11
2018-06-22T18:20:39.962Z,63.27
2018-06-22T18:25:19.394Z,62.89
2018-06-22T18:29:57.991Z,62.82
2018-06-22T18:34:37.097Z,63.15
2018-06-22T18:39:15.690Z,62.06
2018-06-22T18:43:58.961Z,62.68
2018-06-22T18:48:37.538Z,61.81
2018-06-22T18:53:21.462Z,62.39
2018-06-22T18:58:05.771Z,68.25
2018-06-22T19:02:50.639Z,67.69
2018-06-22T19:07:29.343Z,66.33
2018-06-22T19:12:07.936Z,66.76
2018-06-22T19:16:46.573Z,65.30
2018-06-22T19:21:25.472Z,62.95
2018-06-22T19:26:04.071Z,60.65
2018-06-22T19:30:42.690Z,63.30
2018-06-22T19:35:21.312Z,66.34
2018-06-22T19:40:00.050Z,62.19
2018-06-22T19:44:43.836Z,64.12
2018-06-22T19:49:28.876Z,62.65
2018-06-22T19:54:08.686Z,62.73
2018-06-22T19:58:50.687Z,61.30
2018-06-22T20:03:29.964Z,60.53
2018-06-22T20:08:12.474Z,62.00
2018-06-22T20:12:51.174Z,62.18
2018-06-22T20:17:32.794Z,62.99
2018-06-22T20:22:11.208Z,64.16
2018-06-22T20:26:52.813Z,63.43
2018-06-22T20:31:36.773Z,62.59
2018-06-22T20:36:20.765Z,62.73
2018-06-22T20:41:04.689Z,63.48
2018-06-22T20:45:48.786Z,63.54
2018-06-22T20:50:32.290Z,62.40
2018-06-22T20:55:11.134Z,62.18
2018-06-22T20:59:50.373Z,62.96
2018-06-22T21:04:29.556Z,65.17
2018-06-22T21:09:10.259Z,68.69
2018-06-22T21:13:48.659Z,64.61
2018-06-22T21:18:27.354Z,64.52
2018-06-22T21:23:06.054Z,65.34
2018-06-22T21:27:50.953Z,64.26
2018-06-22T21:32:34.679Z,62.27
2018-06-22T21:37:24.166Z,62.15
2018-06-22T21:42:02.711Z,61.75
2018-06-22T21:46:42.375Z,62.63
2018-06-22T21:51:20.956Z,62.71
2018-06-22T21:56:00.749Z,62.39
2018-06-22T22:00:39.359Z,65.22
2018-06-22T22:05:18.980Z,67.87
2018-06-22T22:09:57.601Z,67.25
2018-06-22T22:14:36.110Z,66.81
2018-06-22T22:19:14.792Z,66.58
2018-06-22T22:23:53.341Z,67.59
2018-06-22T22:28:35.793Z,66.97
2018-06-22T22:33:14.234Z,67.13
2018-06-22T22:37:53.872Z,66.61
2018-06-22T22:42:32.403Z,67.15
2018-06-22T22:47:14.106Z,65.78
2018-06-22T22:51:52.608Z,65.85
2018-06-22T22:56:32.075Z,66.12
2018-06-22T23:01:10.377Z,66.82
2018-06-22T23:05:52.139Z,67.81
2018-06-22T23:10:30.671Z,68.42
2018-06-22T23:15:12.655Z,68.51
2018-06-22T23:19:51.154Z,68.49
2018-06-22T23:24:29.552Z,68.64
2018-06-22T23:29:08.136Z,68.64
2018-06-22T23:33:46.679Z,68.63
2018-06-22T23:38:29.029Z,68.80
2018-06-22T23:43:07.386Z,68.73
2018-06-22T23:47:49.518Z,68.55
2018-06-22T23:52:28.116Z,68.71
2018-06-22T23:57:07.762Z,69.08
